Time;durP1;ratioP1;P1;durP2;ratioP2;P2;SDS_P1;SDS_P2;PMS_P1;PMS_P2;Temp;Humidity;BMP_temperature;BMP_pressure;BME280_temperature;BME280_humidity;BME280_pressure;Samples;Min_cycle;Max_cycle;Signal;HPM_P1;HPM_P2
2023/06/17 00:01:59;;;;;;;9.53;6.97;;;;;;;21.31;43.07;97391.13;5087030;28;20550;-68
2023/06/17 00:04:25;;;;;;;9.40;6.97;;;;;;;21.28;43.28;97396.88;5086963;28;20196;-68
2023/06/17 00:06:50;;;;;;;8.20;7.00;;;;;;;21.21;42.97;97396.94;5093366;28;20210;-68
2023/06/17 00:09:16;;;;;;;8.07;6.20;;;;;;;21.23;43.11;97394.06;5091717;28;20559;-68
2023/06/17 00:11:41;;;;;;;8.20;6.73;;;;;;;21.13;43.59;97399.88;5070385;28;20318;-68
2023/06/17 00:14:07;;;;;;;13.10;8.00;;;;;;;21.11;43.60;97381.41;5087134;28;20188;-68
2023/06/17 00:16:36;;;;;;;8.57;7.20;;;;;;;21.07;43.77;97387.41;5086692;28;20615;-69
2023/06/17 00:19:03;;;;;;;10.00;6.83;;;;;;;20.94;43.66;97391.78;5086910;28;20424;-69
2023/06/17 00:21:28;;;;;;;8.77;7.03;;;;;;;20.92;44.05;97388.50;5099804;28;20424;-69
2023/06/17 00:23:53;;;;;;;9.30;7.03;;;;;;;20.90;43.77;97387.09;5091946;28;20461;-69
2023/06/17 00:26:19;;;;;;;10.43;6.90;;;;;;;20.93;43.40;97384.81;5090123;28;20213;-69
2023/06/17 00:28:44;;;;;;;10.63;7.20;;;;;;;20.95;44.12;97382.75;5087739;28;20272;-69
2023/06/17 00:31:10;;;;;;;7.83;7.03;;;;;;;20.91;43.94;97376.25;5095973;28;20189;-69
2023/06/17 00:33:35;;;;;;;7.37;6.67;;;;;;;20.96;44.02;97376.41;5081141;28;20692;-69
2023/06/17 00:36:03;;;;;;;6.70;6.10;;;;;;;20.91;43.91;97375.41;5073824;28;20216;-69
2023/06/17 00:38:28;;;;;;;9.03;7.10;;;;;;;20.83;43.93;97373.81;5090564;28;20680;-69
2023/06/17 00:40:53;;;;;;;7.93;7.13;;;;;;;20.78;44.13;97373.66;5095569;28;20415;-69
2023/06/17 00:43:19;;;;;;;9.93;6.17;;;;;;;20.79;43.85;97376.09;5084269;28;20608;-69
2023/06/17 00:45:45;;;;;;;13.23;7.40;;;;;;;20.77;44.16;97374.69;5090140;28;20190;-69
2023/06/17 00:48:10;;;;;;;8.03;6.80;;;;;;;20.70;44.00;97372.84;5098833;28;20217;-68
2023/06/17 00:50:37;;;;;;;8.90;7.90;;;;;;;20.72;44.08;97368.13;5098771;28;20199;-70
2023/06/17 00:53:03;;;;;;;7.77;6.97;;;;;;;20.73;44.17;97374.25;5089255;28;20682;-70
2023/06/17 00:55:28;;;;;;;14.87;7.00;;;;;;;20.68;44.73;97376.75;5090467;28;20435;-69
2023/06/17 00:57:57;;;;;;;10.30;7.03;;;;;;;20.62;44.43;97373.09;5089393;28;20451;-68
2023/06/17 01:00:22;;;;;;;7.17;6.47;;;;;;;20.59;44.61;97373.50;5090011;28;20190;-68
2023/06/17 01:02:48;;;;;;;9.20;6.30;;;;;;;20.55;45.00;97369.63;5090001;28;20564;-69
2023/06/17 01:05:14;;;;;;;11.87;6.70;;;;;;;20.54;44.63;97370.69;5090438;28;20236;-69
2023/06/17 01:07:57;;;;;;;7.60;6.33;;;;;;;20.50;45.08;97367.63;5069720;28;20873;-70
2023/06/17 01:10:46;;;;;;;10.27;6.50;;;;;;;20.41;44.84;97372.34;5077796;28;20435;-68
2023/06/17 01:13:12;;;;;;;9.93;5.93;;;;;;;20.46;44.70;97370.91;5090061;28;20783;-68
2023/06/17 01:15:38;;;;;;;14.23;7.10;;;;;;;20.42;44.88;97368.66;5097686;28;20431;-68
2023/06/17 01:18:04;;;;;;;8.63;6.20;;;;;;;20.39;45.09;97371.78;5088123;28;20439;-69
2023/06/17 01:20:32;;;;;;;7.80;7.00;;;;;;;20.31;44.99;97372.00;5090097;28;20196;-68
2023/06/17 01:22:58;;;;;;;9.97;6.87;;;;;;;20.29;45.44;97367.91;5071071;28;20923;-68
2023/06/17 01:25:29;;;;;;;8.50;5.90;;;;;;;20.25;45.38;97364.88;5071373;28;20431;-68
2023/06/17 01:27:59;;;;;;;10.13;6.87;;;;;;;20.28;45.34;97369.78;5084901;28;20444;-69
2023/06/17 01:30:28;;;;;;;7.03;6.13;;;;;;;20.29;45.25;97373.25;5092068;28;20439;-69
2023/06/17 01:32:55;;;;;;;8.00;6.57;;;;;;;20.28;45.35;97367.13;5088209;28;20447;-68
2023/06/17 01:35:20;;;;;;;12.73;6.60;;;;;;;20.23;45.08;97367.72;5070886;28;20419;-69
2023/06/17 01:37:50;;;;;;;9.27;7.07;;;;;;;20.20;45.35;97365.50;5096865;28;20792;-69
2023/06/17 01:40:19;;;;;;;8.87;6.93;;;;;;;20.15;45.47;97364.50;5076821;28;20706;-68
2023/06/17 01:42:45;;;;;;;10.23;7.20;;;;;;;20.13;45.49;97367.34;5065457;28;20455;-70
2023/06/17 01:45:11;;;;;;;7.57;6.23;;;;;;;20.09;45.47;97364.31;5088952;28;20442;-69
2023/06/17 01:47:37;;;;;;;8.10;6.80;;;;;;;20.12;45.35;97370.22;5089321;28;20445;-68
2023/06/17 01:50:04;;;;;;;12.30;6.87;;;;;;;20.03;45.55;97374.97;5070594;28;20430;-69
2023/06/17 01:52:30;;;;;;;7.00;6.30;;;;;;;20.03;45.72;97369.63;5088099;28;20598;-69
2023/06/17 01:54:56;;;;;;;12.70;6.70;;;;;;;19.94;45.94;97366.38;5088714;28;20596;-69
2023/06/17 01:57:22;;;;;;;9.73;6.27;;;;;;;19.92;45.75;97366.59;5088801;28;20800;-69
2023/06/17 01:59:47;;;;;;;7.80;6.50;;;;;;;19.89;46.01;97367.00;5089095;28;20435;-69
2023/06/17 02:02:13;;;;;;;11.20;6.33;;;;;;;19.85;45.93;97368.41;5089336;28;20295;-69
2023/06/17 02:04:38;;;;;;;8.50;6.13;;;;;;;19.72;46.04;97366.59;5088908;28;20182;-69
2023/06/17 02:07:04;;;;;;;8.13;6.73;;;;;;;19.71;46.21;97370.28;5088500;28;20217;-70
2023/06/17 02:09:29;;;;;;;9.37;6.10;;;;;;;19.68;46.30;97369.88;5090101;28;20652;-68
2023/06/17 02:11:55;;;;;;;11.87;7.37;;;;;;;19.64;46.36;97366.84;5080660;28;20185;-69
2023/06/17 02:14:20;;;;;;;10.60;6.37;;;;;;;19.72;46.10;97363.16;5088968;28;20268;-69
2023/06/17 02:16:46;;;;;;;13.13;6.00;;;;;;;19.62;46.60;97368.88;5088162;28;20756;-69
2023/06/17 02:19:12;;;;;;;8.30;6.00;;;;;;;19.65;46.44;97365.81;5040239;28;20630;-69
2023/06/17 02:21:38;;;;;;;9.53;6.93;;;;;;;19.60;46.58;97365.59;5039444;28;20586;-69
2023/06/17 02:24:04;;;;;;;9.47;6.03;;;;;;;19.59;46.69;97363.97;5070328;28;20435;-69
2023/06/17 02:26:31;;;;;;;8.47;7.33;;;;;;;19.63;46.48;97359.88;5088557;28;20526;-69
2023/06/17 02:28:56;;;;;;;10.47;6.83;;;;;;;19.56;46.80;97354.56;5086076;28;20561;-69
2023/06/17 02:31:22;;;;;;;8.23;7.20;;;;;;;19.53;46.88;97351.50;5087825;28;20518;-69
2023/06/17 02:33:47;;;;;;;12.13;6.70;;;;;;;19.53;46.87;97348.84;5088304;28;20186;-69
2023/06/17 02:36:14;;;;;;;8.10;6.20;;;;;;;19.52;46.85;97357.84;5070469;28;20218;-69
2023/06/17 02:38:40;;;;;;;8.10;6.63;;;;;;;19.45;46.85;97348.03;5088665;28;20190;-69
2023/06/17 02:41:05;;;;;;;8.07;7.00;;;;;;;19.43;47.10;97343.94;5089939;28;20427;-69
2023/06/17 02:43:31;;;;;;;8.57;6.53;;;;;;;19.36;47.15;97354.59;5084028;28;20258;-68
2023/06/17 02:45:57;;;;;;;7.90;6.80;;;;;;;19.38;47.18;97347.22;5087515;28;20185;-69
2023/06/17 02:48:22;;;;;;;7.70;6.90;;;;;;;19.41;47.00;97340.69;5087907;28;20239;-69
2023/06/17 02:50:48;;;;;;;12.37;6.53;;;;;;;19.42;47.03;97337.00;5088654;28;20511;-69
2023/06/17 02:53:15;;;;;;;9.60;6.33;;;;;;;19.39;46.94;97334.75;5070052;28;20273;-69
2023/06/17 02:55:45;;;;;;;8.20;6.70;;;;;;;19.38;47.02;97341.91;5070009;28;20181;-68
2023/06/17 02:58:14;;;;;;;10.90;7.00;;;;;;;19.40;47.01;97345.19;5087401;28;20444;-69
2023/06/17 03:00:40;;;;;;;8.10;6.60;;;;;;;19.37;47.11;97348.25;5085757;28;20424;-69
2023/06/17 03:03:06;;;;;;;7.03;6.33;;;;;;;19.28;47.48;97339.66;5096198;28;21002;-69
2023/06/17 03:05:32;;;;;;;7.80;6.90;;;;;;;19.30;47.23;97344.75;5088144;28;20182;-68
2023/06/17 03:07:57;;;;;;;9.40;7.47;;;;;;;19.30;47.07;97345.59;5087548;28;20455;-68
2023/06/17 03:10:23;;;;;;;8.50;6.80;;;;;;;19.30;47.14;97350.91;5090478;28;20599;-68
2023/06/17 03:12:48;;;;;;;10.47;7.57;;;;;;;19.23;47.07;97343.97;5087431;28;20178;-68
2023/06/17 03:15:17;;;;;;;7.90;6.90;;;;;;;19.14;47.24;97344.16;5087478;28;20234;-68
2023/06/17 03:17:43;;;;;;;11.50;7.23;;;;;;;19.18;47.32;97344.56;5093599;28;20817;-67
2023/06/17 03:20:08;;;;;;;8.17;7.37;;;;;;;19.18;47.27;97347.22;5071183;28;20562;-68
2023/06/17 03:22:34;;;;;;;8.73;7.03;;;;;;;19.18;47.25;97352.53;5088113;28;20206;-69
2023/06/17 03:24:59;;;;;;;9.50;7.17;;;;;;;19.16;47.19;97342.09;5077964;28;20194;-68
2023/06/17 03:27:25;;;;;;;14.03;7.77;;;;;;;19.11;47.22;97344.56;5087071;28;20238;-69
2023/06/17 03:29:50;;;;;;;10.27;6.53;;;;;;;19.05;47.57;97347.22;5087481;28;20213;-69
2023/06/17 03:32:16;;;;;;;8.70;7.23;;;;;;;19.01;47.64;97352.13;5087589;28;20190;-68
2023/06/17 03:34:42;;;;;;;9.60;7.17;;;;;;;19.01;47.71;97352.13;5083459;28;20745;-69
2023/06/17 03:37:08;;;;;;;7.43;6.73;;;;;;;19.01;47.99;97352.13;5095033;28;20278;-70
2023/06/17 03:39:33;;;;;;;10.83;7.40;;;;;;;19.06;47.67;97351.50;5093484;28;20431;-69
2023/06/17 03:41:59;;;;;;;10.13;6.60;;;;;;;19.11;47.63;97360.50;5084584;28;20708;-68
2023/06/17 03:44:24;;;;;;;9.57;6.80;;;;;;;19.15;47.60;97359.06;5087161;28;20262;-68
2023/06/17 03:46:50;;;;;;;7.63;6.53;;;;;;;19.17;47.46;97359.69;5088449;28;20775;-68
2023/06/17 03:49:16;;;;;;;8.10;6.67;;;;;;;19.09;47.39;97362.53;5081340;28;20194;-68
2023/06/17 03:51:41;;;;;;;8.43;7.13;;;;;;;18.98;47.68;97363.16;5070624;28;21127;-68
2023/06/17 03:54:07;;;;;;;9.10;7.00;;;;;;;18.97;47.88;97361.50;5089772;28;20343;-69
2023/06/17 03:56:32;;;;;;;9.87;6.57;;;;;;;18.98;47.80;97368.47;5098370;28;20214;-69
2023/06/17 03:58:58;;;;;;;7.80;7.00;;;;;;;18.97;48.03;97366.81;5090151;28;20189;-68
2023/06/17 04:01:23;;;;;;;8.17;7.00;;;;;;;19.04;47.88;97362.31;5099383;28;20651;-68
2023/06/17 04:03:48;;;;;;;8.80;7.20;;;;;;;19.07;47.89;97367.22;5095123;28;20613;-69
2023/06/17 04:06:14;;;;;;;9.40;7.10;;;;;;;19.07;48.02;97364.56;5101963;28;20196;-69
2023/06/17 04:08:41;;;;;;;12.00;6.77;;;;;;;19.01;47.98;97362.75;5091311;28;20215;-68
2023/06/17 04:11:07;;;;;;;11.43;7.27;;;;;;;18.99;48.13;97368.25;5099045;28;20201;-68
2023/06/17 04:13:32;;;;;;;9.30;8.13;;;;;;;18.91;48.37;97362.28;5072623;28;20446;-68
2023/06/17 04:15:58;;;;;;;9.33;7.53;;;;;;;18.97;48.22;97377.44;5089948;28;20185;-68
2023/06/17 04:18:25;;;;;;;7.93;6.90;;;;;;;18.91;48.30;97368.41;5095483;28;20280;-69
2023/06/17 04:20:56;;;;;;;9.40;7.73;;;;;;;18.99;48.23;97378.06;5099738;28;20193;-69
2023/06/17 04:23:21;;;;;;;8.90;7.20;;;;;;;19.05;48.37;97374.59;5085427;28;20460;-69
2023/06/17 04:25:48;;;;;;;9.10;7.00;;;;;;;19.08;48.26;97373.38;5090473;28;20932;-68
2023/06/17 04:28:17;;;;;;;8.23;7.43;;;;;;;19.02;48.54;97369.69;5093138;28;20213;-69
2023/06/17 04:30:45;;;;;;;10.10;7.10;;;;;;;18.98;48.45;97371.13;5102790;28;20502;-68
2023/06/17 04:33:12;;;;;;;11.07;7.60;;;;;;;18.93;48.74;97370.84;5096414;28;20439;-69
2023/06/17 04:35:41;;;;;;;8.27;6.97;;;;;;;18.98;48.98;97368.47;5090611;28;20855;-69
2023/06/17 04:38:10;;;;;;;10.03;7.40;;;;;;;19.01;49.04;97365.41;5090066;28;20612;-68
2023/06/17 04:40:36;;;;;;;9.10;6.70;;;;;;;19.06;49.17;97368.25;5088670;28;20447;-68
2023/06/17 04:43:02;;;;;;;8.50;7.53;;;;;;;19.14;49.08;97362.75;5091693;28;20455;-68
2023/06/17 04:45:27;;;;;;;8.20;7.40;;;;;;;19.21;48.27;97361.94;5092310;28;20235;-68
2023/06/17 04:47:53;;;;;;;10.77;7.63;;;;;;;19.14;47.65;97356.63;5090938;28;20346;-69
2023/06/17 04:50:19;;;;;;;8.27;7.43;;;;;;;19.10;47.73;97366.00;5091260;28;20224;-68
2023/06/17 04:52:51;;;;;;;9.93;7.43;;;;;;;19.19;47.33;97365.59;5090289;28;20192;-69
2023/06/17 04:55:18;;;;;;;9.17;8.10;;;;;;;19.24;47.32;97366.84;5093386;28;20426;-68
2023/06/17 04:57:44;;;;;;;9.90;7.87;;;;;;;19.31;47.02;97357.84;5090238;28;20440;-68
2023/06/17 05:00:10;;;;;;;8.83;7.87;;;;;;;19.38;46.68;97360.50;5091718;28;20431;-68
2023/06/17 05:02:37;;;;;;;9.00;8.07;;;;;;;19.47;46.45;97364.59;5090858;28;20209;-68
2023/06/17 05:05:03;;;;;;;8.00;7.20;;;;;;;19.55;46.65;97360.91;5089243;28;20428;-68
2023/06/17 05:07:29;;;;;;;8.17;7.37;;;;;;;19.63;46.65;97365.19;5089606;28;20444;-68
2023/06/17 05:09:55;;;;;;;8.33;7.43;;;;;;;19.71;46.54;97362.31;5101758;28;20431;-68
2023/06/17 05:12:20;;;;;;;22.90;8.00;;;;;;;19.75;45.89;97366.19;5087543;28;20185;-68
2023/06/17 05:14:46;;;;;;;8.80;7.90;;;;;;;19.76;46.15;97365.19;5089816;28;20221;-67
2023/06/17 05:17:11;;;;;;;10.97;8.27;;;;;;;19.84;46.07;97368.63;5089529;28;20217;-68
2023/06/17 05:19:36;;;;;;;11.00;7.97;;;;;;;19.85;45.77;97370.25;5100270;28;20186;-69
2023/06/17 05:22:02;;;;;;;13.10;8.40;;;;;;;19.96;46.14;97374.97;5092052;28;20304;-68
2023/06/17 05:24:27;;;;;;;8.03;7.03;;;;;;;20.05;45.88;97364.94;5085106;28;20186;-69
2023/06/17 05:26:53;;;;;;;11.53;8.33;;;;;;;20.14;45.71;97370.84;5095887;28;20255;-67
2023/06/17 05:29:18;;;;;;;11.43;8.37;;;;;;;20.22;45.62;97365.28;5088650;28;20189;-68
2023/06/17 05:31:44;;;;;;;13.10;8.53;;;;;;;20.36;45.36;97364.22;5089896;28;20189;-69
2023/06/17 05:34:09;;;;;;;8.60;7.70;;;;;;;20.49;45.36;97365.16;5088167;28;20203;-68
2023/06/17 05:36:35;;;;;;;8.83;7.63;;;;;;;20.62;45.07;97366.94;5088278;28;20292;-69
2023/06/17 05:39:00;;;;;;;10.77;7.40;;;;;;;20.76;44.53;97370.41;5089573;28;20273;-69
2023/06/17 05:41:26;;;;;;;10.13;8.00;;;;;;;20.91;44.73;97365.59;5097544;28;20193;-69
2023/06/17 05:43:52;;;;;;;18.70;7.43;;;;;;;21.05;43.97;97370.81;5090623;28;20214;-69
2023/06/17 05:46:17;;;;;;;8.90;7.10;;;;;;;21.15;43.84;97365.84;5088892;28;20201;-69
2023/06/17 05:48:42;;;;;;;12.00;7.73;;;;;;;21.17;43.25;97369.13;5097774;28;20193;-69
2023/06/17 05:51:08;;;;;;;7.90;7.13;;;;;;;21.37;43.28;97366.25;5089046;28;20189;-69
2023/06/17 05:53:33;;;;;;;8.20;7.40;;;;;;;21.54;43.00;97371.06;5091384;28;20201;-68
2023/06/17 05:55:59;;;;;;;8.70;7.27;;;;;;;21.71;43.18;97374.00;5089916;28;20239;-68
2023/06/17 05:58:24;;;;;;;9.73;7.20;;;;;;;21.86;42.88;97369.13;5089377;28;20214;-69
2023/06/17 06:00:50;;;;;;;8.57;6.57;;;;;;;22.03;43.06;97377.38;5094143;28;20596;-68
2023/06/17 06:03:15;;;;;;;7.90;6.53;;;;;;;22.16;42.56;97376.44;5097577;28;20289;-68
2023/06/17 06:05:41;;;;;;;8.77;7.80;;;;;;;22.11;41.89;97378.94;5089386;28;20258;-69
2023/06/17 06:08:06;;;;;;;9.03;7.13;;;;;;;22.21;41.72;97373.88;5097420;28;20216;-68
2023/06/17 06:10:32;;;;;;;10.47;7.60;;;;;;;22.33;41.28;97378.47;5092440;28;20193;-68
2023/06/17 06:12:59;;;;;;;11.33;7.00;;;;;;;22.42;41.30;97376.34;5080092;28;20190;-67
2023/06/17 06:15:25;;;;;;;10.80;7.80;;;;;;;22.59;41.30;97381.88;5096962;28;20428;-69
2023/06/17 06:17:51;;;;;;;10.07;6.67;;;;;;;22.57;40.26;97373.28;5095557;28;20887;-69
2023/06/17 06:20:17;;;;;;;8.53;6.70;;;;;;;22.70;40.41;97371.25;5094444;28;20517;-70
2023/06/17 06:22:42;;;;;;;9.60;7.27;;;;;;;22.74;40.01;97374.28;5089094;28;20464;-69
2023/06/17 06:25:08;;;;;;;10.40;7.43;;;;;;;22.95;40.04;97374.81;5088272;28;20197;-69
2023/06/17 06:27:33;;;;;;;11.03;7.03;;;;;;;23.13;39.92;97374.75;5097755;28;20217;-69
2023/06/17 06:29:58;;;;;;;12.50;7.07;;;;;;;23.31;39.97;97368.53;5098465;28;20214;-68
2023/06/17 06:32:24;;;;;;;8.53;6.30;;;;;;;23.47;39.77;97372.38;5088617;28;20177;-69
2023/06/17 06:34:49;;;;;;;7.10;6.40;;;;;;;23.66;39.53;97371.47;5088847;28;20198;-69
2023/06/17 06:37:15;;;;;;;8.70;7.10;;;;;;;23.86;39.55;97371.09;5090287;28;20217;-70
2023/06/17 06:39:42;;;;;;;8.00;6.60;;;;;;;24.02;38.66;97378.47;5096088;28;20186;-69
2023/06/17 06:42:08;;;;;;;8.50;6.57;;;;;;;24.22;38.33;97385.28;5095640;28;20689;-68
2023/06/17 06:44:33;;;;;;;7.83;7.10;;;;;;;24.39;37.55;97380.81;5088280;28;20438;-68
2023/06/17 06:46:59;;;;;;;10.40;6.93;;;;;;;24.57;36.92;97376.34;5088679;28;20205;-69
2023/06/17 06:49:24;;;;;;;7.17;5.50;;;;;;;24.76;36.44;97376.97;5088073;28;20246;-69
2023/06/17 06:51:50;;;;;;;9.10;6.47;;;;;;;24.96;36.58;97378.41;5088657;28;20197;-69
2023/06/17 06:54:15;;;;;;;13.07;6.63;;;;;;;25.14;36.43;97380.06;5091931;28;20305;-69
2023/06/17 06:56:41;;;;;;;10.53;6.30;;;;;;;25.35;36.43;97375.03;5089177;28;20216;-68
2023/06/17 06:59:06;;;;;;;7.03;6.20;;;;;;;25.53;36.03;97379.34;5087778;28;20227;-67
2023/06/17 07:01:32;;;;;;;6.90;6.20;;;;;;;25.70;35.12;97377.47;5088385;28;20181;-69
2023/06/17 07:03:58;;;;;;;7.30;6.60;;;;;;;25.86;34.75;97381.19;5088435;28;20210;-69
2023/06/17 07:06:23;;;;;;;6.60;5.73;;;;;;;26.03;34.71;97380.34;5089866;28;20217;-69
2023/06/17 07:08:48;;;;;;;7.83;6.30;;;;;;;26.14;34.02;97384.81;5094015;28;20718;-69
2023/06/17 07:11:14;;;;;;;7.10;6.40;;;;;;;26.29;33.82;97372.66;5087564;28;20208;-68
2023/06/17 07:13:41;;;;;;;13.70;6.50;;;;;;;26.45;33.14;97381.69;5093640;28;20183;-69
2023/06/17 07:16:06;;;;;;;6.27;5.67;;;;;;;26.56;31.85;97383.44;5096920;28;20459;-68
2023/06/17 07:18:31;;;;;;;5.90;5.20;;;;;;;26.71;31.05;97377.44;5093567;28;20447;-68
2023/06/17 07:20:57;;;;;;;5.63;5.00;;;;;;;26.86;30.94;97371.41;5096304;28;20276;-68
2023/06/17 07:23:26;;;;;;;7.23;5.77;;;;;;;27.03;30.18;97382.06;5097542;28;20209;-68
2023/06/17 07:25:51;;;;;;;9.63;5.93;;;;;;;27.18;30.01;97376.00;5093487;28;20189;-67
2023/06/17 07:28:17;;;;;;;9.40;5.37;;;;;;;27.34;29.56;97379.66;5087282;28;20458;-69
2023/06/17 07:30:42;;;;;;;9.87;5.17;;;;;;;27.43;29.27;97371.91;5093016;28;20204;-69
2023/06/17 07:33:08;;;;;;;5.90;5.27;;;;;;;27.57;29.32;97375.00;5092787;28;20221;-69
2023/06/17 07:35:33;;;;;;;8.50;6.40;;;;;;;27.68;28.75;97375.88;5088265;28;20226;-69
2023/06/17 07:37:59;;;;;;;9.20;5.00;;;;;;;27.80;28.85;97378.38;5088432;28;20228;-69
2023/06/17 07:40:24;;;;;;;9.00;5.90;;;;;;;27.93;28.40;97377.09;5090431;28;20825;-68
2023/06/17 07:42:50;;;;;;;7.13;5.20;;;;;;;28.05;28.25;97372.31;5096057;28;20209;-68
2023/06/17 07:45:15;;;;;;;8.80;5.50;;;;;;;28.19;28.42;97373.47;5093804;28;20185;-69
2023/06/17 07:47:41;;;;;;;12.73;5.03;;;;;;;28.35;27.76;97378.94;5087451;28;20232;-69
2023/06/17 07:50:08;;;;;;;8.17;5.60;;;;;;;28.49;27.15;97373.84;5087239;28;20681;-68
2023/06/17 07:52:35;;;;;;;5.70;4.27;;;;;;;28.61;27.26;97377.13;5087903;28;20186;-69
2023/06/17 07:55:01;;;;;;;6.47;4.90;;;;;;;28.75;27.23;97365.88;5087946;28;20432;-69
2023/06/17 07:57:27;;;;;;;8.13;5.03;;;;;;;28.87;26.91;97365.63;5090209;28;20503;-68
2023/06/17 07:59:52;;;;;;;9.23;5.07;;;;;;;28.99;27.00;97370.75;5093242;28;20435;-69
2023/06/17 08:02:17;;;;;;;5.33;4.80;;;;;;;29.07;25.94;97364.84;5088464;28;20209;-70
2023/06/17 08:04:44;;;;;;;5.37;4.87;;;;;;;29.11;26.19;97369.44;5068739;28;20795;-69
2023/06/17 08:07:11;;;;;;;5.80;5.07;;;;;;;29.24;25.70;97361.88;5089518;28;20286;-69
2023/06/17 08:09:36;;;;;;;7.03;4.40;;;;;;;29.36;25.27;97364.34;5095286;28;20520;-68
2023/06/17 08:12:02;;;;;;;5.47;4.73;;;;;;;29.49;25.03;97363.78;5086968;28;20494;-69
2023/06/17 08:14:27;;;;;;;6.23;4.50;;;;;;;29.63;24.88;97357.81;5086801;28;20190;-68
2023/06/17 08:16:53;;;;;;;5.40;4.20;;;;;;;29.77;24.96;97352.69;5087502;28;20229;-69
2023/06/17 08:19:18;;;;;;;5.70;5.10;;;;;;;29.89;24.48;97353.19;5086468;28;20469;-68
2023/06/17 08:21:45;;;;;;;6.00;4.93;;;;;;;30.00;24.33;97353.97;5088073;28;20263;-70
2023/06/17 08:24:24;;;;;;;9.83;5.37;;;;;;;30.07;24.02;97356.38;5086729;28;20301;-68
2023/06/17 08:26:50;;;;;;;5.13;4.63;;;;;;;30.05;24.29;97353.97;5087603;28;20450;-69
2023/06/17 08:29:16;;;;;;;6.70;4.17;;;;;;;30.17;24.30;97353.66;5089317;28;20427;-70
2023/06/17 08:31:43;;;;;;;5.43;4.50;;;;;;;30.29;24.61;97347.91;5092188;28;20947;-69
2023/06/17 08:34:08;;;;;;;5.10;4.43;;;;;;;30.37;23.53;97352.75;5092150;28;20185;-68
2023/06/17 08:36:34;;;;;;;4.83;4.43;;;;;;;30.41;23.38;97348.41;5086226;28;20589;-69
2023/06/17 08:39:00;;;;;;;6.50;4.70;;;;;;;30.48;23.52;97351.63;5095733;28;20678;-68
2023/06/17 08:41:27;;;;;;;4.93;4.53;;;;;;;30.59;23.72;97351.59;5087756;28;20435;-68
2023/06/17 08:43:56;;;;;;;5.37;4.70;;;;;;;30.36;23.00;97348.44;5074253;28;20246;-67
2023/06/17 08:46:24;;;;;;;8.10;4.40;;;;;;;30.30;23.66;97354.94;5104863;28;20955;-68
2023/06/17 08:48:50;;;;;;;5.37;4.83;;;;;;;30.43;23.56;97348.16;5099473;28;21229;-68
2023/06/17 08:51:16;;;;;;;5.50;4.80;;;;;;;30.59;23.05;97351.59;5073400;28;20560;-69
2023/06/17 08:53:44;;;;;;;5.73;4.67;;;;;;;30.80;23.03;97353.06;5094984;28;20878;-68
2023/06/17 08:56:11;;;;;;;7.27;5.00;;;;;;;31.01;22.96;97339.41;5090253;28;20201;-68
2023/06/17 08:58:37;;;;;;;5.33;4.83;;;;;;;30.99;22.50;97343.47;5098909;28;20431;-69
2023/06/17 09:01:05;;;;;;;6.37;4.70;;;;;;;30.99;22.60;97340.78;5099092;28;20868;-68
2023/06/17 09:03:37;;;;;;;8.43;4.70;;;;;;;31.09;22.43;97340.69;5096840;28;20638;-69
2023/06/17 09:06:07;;;;;;;8.10;4.77;;;;;;;31.00;23.80;97347.81;5073046;28;20839;-69
2023/06/17 09:08:33;;;;;;;5.10;4.60;;;;;;;31.29;24.01;97347.88;5071704;28;20470;-67
2023/06/17 09:11:05;;;;;;;7.00;5.00;;;;;;;31.63;24.21;97340.78;5090166;28;20424;-68
2023/06/17 09:13:30;;;;;;;10.87;5.07;;;;;;;31.77;23.49;97346.34;5089873;28;20276;-68
2023/06/17 09:15:56;;;;;;;5.73;5.23;;;;;;;31.80;23.22;97345.78;5089621;28;20828;-68
2023/06/17 09:18:21;;;;;;;6.70;5.20;;;;;;;31.63;23.61;97340.78;5091267;28;20221;-68
2023/06/17 09:20:56;;;;;;;8.83;5.27;;;;;;;31.40;23.74;97341.25;5102784;28;20204;-68
2023/06/17 09:23:22;;;;;;;6.40;5.47;;;;;;;31.10;24.47;97340.44;5089760;28;20208;-68
2023/06/17 09:25:48;;;;;;;8.07;5.37;;;;;;;31.23;24.45;97340.91;5090133;28;20459;-68
2023/06/17 09:28:15;;;;;;;7.47;5.33;;;;;;;31.36;24.68;97337.53;5082383;28;20537;-68
2023/06/17 09:30:43;;;;;;;8.73;5.60;;;;;;;31.47;22.91;97332.81;5097566;28;20186;-68
2023/06/17 09:33:22;;;;;;;5.20;4.77;;;;;;;31.64;23.38;97332.38;5089613;28;21016;-69
2023/06/17 09:36:01;;;;;;;7.43;4.93;;;;;;;31.75;22.63;97330.41;5084196;28;20792;-68
2023/06/17 09:38:27;;;;;;;7.60;5.40;;;;;;;31.70;22.03;97328.56;5099174;28;20563;-71
2023/06/17 09:40:54;;;;;;;5.30;4.80;;;;;;;31.98;21.95;97331.50;5096473;28;20456;-70
2023/06/17 09:43:20;;;;;;;5.30;4.47;;;;;;;32.14;22.35;97328.56;5088434;28;20456;-69
2023/06/17 09:45:49;;;;;;;12.13;4.27;;;;;;;32.15;21.31;97330.19;5072454;28;20435;-69
2023/06/17 09:48:17;;;;;;;6.27;4.20;;;;;;;32.15;21.29;97330.19;5084513;28;20461;-68
2023/06/17 09:50:43;;;;;;;6.83;4.40;;;;;;;32.06;20.42;97331.94;5090058;28;20430;-69
2023/06/17 09:53:09;;;;;;;6.70;4.03;;;;;;;31.95;20.59;97331.25;5097641;28;20430;-69
2023/06/17 09:55:36;;;;;;;5.23;4.00;;;;;;;31.98;21.20;97326.06;5089296;28;20431;-69
2023/06/17 09:58:02;;;;;;;8.80;4.30;;;;;;;31.98;20.84;97328.78;5089521;28;20724;-68
2023/06/17 10:00:29;;;;;;;9.20;4.20;;;;;;;31.95;21.34;97326.66;5091320;28;20439;-69
2023/06/17 10:02:54;;;;;;;7.53;5.20;;;;;;;31.92;20.75;97327.22;5089784;28;20491;-69
2023/06/17 10:05:20;;;;;;;4.40;4.00;;;;;;;31.65;21.50;97323.16;5092602;28;20475;-69
2023/06/17 10:07:48;;;;;;;5.87;4.10;;;;;;;31.69;21.70;97324.22;5081005;28;20217;-69
2023/06/17 10:10:15;;;;;;;8.77;4.47;;;;;;;31.88;21.11;97315.38;5090158;28;20510;-69
2023/06/17 10:12:43;;;;;;;5.60;4.30;;;;;;;32.05;21.52;97314.88;5096733;28;20454;-69
2023/06/17 10:15:09;;;;;;;4.80;4.10;;;;;;;32.18;21.56;97307.94;5089004;28;20446;-69
2023/06/17 10:17:35;;;;;;;6.13;4.43;;;;;;;32.42;21.56;97305.22;5088300;28;20456;-70
2023/06/17 10:20:05;;;;;;;5.50;4.17;;;;;;;32.62;21.23;97312.25;5077104;28;20432;-69
2023/06/17 10:22:31;;;;;;;6.40;4.50;;;;;;;32.80;20.74;97314.44;5058975;28;20248;-70
2023/06/17 10:24:56;;;;;;;4.40;4.00;;;;;;;32.79;20.29;97313.63;5083327;28;20787;-70
2023/06/17 10:27:22;;;;;;;4.23;3.90;;;;;;;32.61;20.51;97316.06;5100272;28;20725;-69
2023/06/17 10:29:48;;;;;;;4.90;4.40;;;;;;;32.29;20.94;97312.16;5088869;28;20181;-68
2023/06/17 10:32:25;;;;;;;7.57;4.40;;;;;;;32.03;20.73;97311.66;5088798;28;20558;-69
2023/06/17 10:35:06;;;;;;;5.20;4.17;;;;;;;31.88;21.01;97309.94;5088213;28;20437;-69
2023/06/17 10:37:42;;;;;;;6.33;4.30;;;;;;;31.66;21.19;97307.72;5088576;28;20447;-69
2023/06/17 10:40:21;;;;;;;5.87;4.93;;;;;;;31.61;21.00;97303.16;5088914;28;20801;-68
2023/06/17 10:43:01;;;;;;;6.90;4.30;;;;;;;31.79;21.26;97304.34;5083764;28;20494;-69
2023/06/17 10:45:47;;;;;;;4.70;4.20;;;;;;;32.06;20.90;97296.72;5087827;28;20476;-69
2023/06/17 10:48:28;;;;;;;8.33;4.20;;;;;;;32.27;20.35;97295.38;5090622;28;20516;-68
2023/06/17 10:50:57;;;;;;;4.77;4.00;;;;;;;32.46;20.48;97289.16;5063686;28;20454;-70
2023/06/17 10:53:28;;;;;;;5.17;4.27;;;;;;;32.68;20.86;97290.47;5087948;28;20428;-69
2023/06/17 10:55:53;;;;;;;5.80;3.97;;;;;;;32.84;20.16;97278.31;5086544;28;20415;-68
2023/06/17 10:58:19;;;;;;;4.93;4.43;;;;;;;32.98;19.22;97280.25;5099280;28;20461;-67
2023/06/17 11:00:45;;;;;;;6.37;4.43;;;;;;;33.16;19.39;97273.97;5089289;28;20200;-68
2023/06/17 11:03:10;;;;;;;5.40;4.20;;;;;;;33.38;19.54;97283.41;5088592;28;20301;-68
2023/06/17 11:05:36;;;;;;;5.27;3.80;;;;;;;33.23;19.39;97285.25;5090462;28;20186;-69
2023/06/17 11:08:05;;;;;;;7.10;4.07;;;;;;;33.03;19.66;97282.88;5094378;28;20211;-69
2023/06/17 11:10:31;;;;;;;4.70;4.30;;;;;;;32.74;19.39;97290.09;5089475;28;20704;-68
2023/06/17 11:12:57;;;;;;;9.93;4.27;;;;;;;32.41;19.64;97278.38;5094045;28;20864;-69
2023/06/17 11:15:22;;;;;;;7.57;4.20;;;;;;;32.18;19.86;97291.69;5089854;28;20460;-69
2023/06/17 11:18:01;;;;;;;9.53;4.40;;;;;;;31.98;19.59;97288.16;5087441;28;20255;-68
2023/06/17 11:20:33;;;;;;;7.20;4.03;;;;;;;31.93;19.96;97285.50;5093849;28;20204;-68
2023/06/17 11:22:58;;;;;;;4.80;4.27;;;;;;;32.05;19.62;97282.38;5089163;28;20463;-67
2023/06/17 11:25:24;;;;;;;6.60;4.37;;;;;;;32.15;19.23;97270.56;5092542;28;20523;-69
2023/06/17 11:27:50;;;;;;;6.10;4.40;;;;;;;32.26;19.77;97271.28;5087598;28;20212;-68
2023/06/17 11:30:16;;;;;;;5.20;4.27;;;;;;;32.61;20.40;97278.09;5094827;28;20237;-68